createdAt,value
2022-11-05T00:01:09.756Z,2.33
2022-11-05T00:11:20.243Z,4.20
2022-11-05T00:21:44.023Z,1.67
2022-11-05T00:32:14.148Z,0.80
2022-11-05T00:42:48.738Z,1.30
2022-11-05T00:53:50.428Z,1.73
2022-11-05T01:04:16.943Z,3.85
2022-11-05T01:14:44.011Z,3.88
2022-11-05T01:24:52.608Z,5.10
2022-11-05T01:35:04.676Z,3.95
2022-11-05T01:45:17.898Z,4.90
2022-11-05T01:55:31.687Z,5.05
2022-11-05T02:05:39.315Z,4.55
2022-11-05T02:15:57.878Z,4.85
2022-11-05T02:26:46.314Z,4.43
2022-11-05T02:37:01.006Z,6.03
2022-11-05T02:47:18.644Z,6.20
2022-11-05T02:57:33.306Z,4.97
2022-11-05T03:07:47.688Z,5.45
2022-11-05T03:18:09.671Z,5.25
2022-11-05T03:28:26.117Z,4.55
2022-11-05T03:38:40.334Z,5.82
2022-11-05T03:48:52.820Z,7.03
2022-11-05T03:59:08.962Z,5.72
2022-11-05T04:09:32.908Z,5.82
2022-11-05T04:20:05.404Z,5.85
2022-11-05T04:31:11.760Z,3.13
2022-11-05T04:41:38.104Z,6.20
2022-11-05T04:51:55.658Z,2.50
2022-11-05T05:02:10.516Z,3.50
2022-11-05T05:12:21.651Z,1.80
2022-11-05T05:22:34.542Z,1.35
2022-11-05T05:32:42.952Z,1.17
2022-11-05T05:42:59.538Z,1.08
2022-11-05T05:53:08.134Z,0.73
2022-11-05T06:03:23.398Z,1.70
2022-11-05T06:13:33.019Z,1.33
2022-11-05T06:23:46.871Z,1.45
2022-11-05T06:33:56.996Z,0.82
2022-11-05T06:44:08.399Z,1.33
2022-11-05T06:54:28.515Z,2.15
2022-11-05T07:04:55.190Z,2.70
2022-11-05T07:15:19.809Z,1.40
2022-11-05T07:26:01.234Z,1.30
2022-11-05T07:47:51.178Z,2.10
2022-11-05T08:09:48.095Z,1.30
2022-11-05T08:20:05.534Z,1.85
2022-11-05T08:30:29.523Z,2.28
2022-11-05T08:40:44.718Z,1.50
2022-11-05T08:51:00.475Z,2.42
2022-11-05T09:01:13.334Z,2.03
2022-11-05T09:11:57.402Z,1.20
2022-11-05T09:22:14.303Z,1.63
2022-11-05T09:32:41.958Z,1.33
2022-11-05T09:43:01.331Z,1.35
2022-11-05T09:53:21.596Z,0.85
2022-11-05T10:03:36.805Z,0.38
2022-11-05T10:13:58.922Z,0.88
2022-11-05T10:24:28.645Z,0.60
2022-11-05T10:35:14.631Z,0.40
2022-11-05T10:45:47.987Z,2.20
2022-11-05T10:56:12.317Z,1.13
2022-11-05T11:06:50.948Z,0.70
2022-11-05T11:17:34.676Z,1.20
2022-11-05T11:27:50.501Z,0.30
2022-11-05T11:38:05.128Z,2.75
2022-11-05T11:48:32.871Z,1.05
2022-11-05T11:58:59.934Z,0.82
2022-11-05T12:09:34.597Z,0.88
2022-11-05T12:20:30.935Z,0.50
2022-11-05T12:31:30.933Z,1.85
2022-11-05T12:42:26.764Z,0.95
2022-11-05T12:53:27.537Z,0.82
2022-11-05T13:15:49.778Z,0.60
2022-11-05T13:26:19.949Z,0.60
2022-11-05T13:36:54.247Z,0.80
2022-11-05T13:47:48.547Z,0.55
2022-11-05T13:58:34.138Z,0.50
2022-11-05T14:08:54.789Z,2.10
2022-11-05T14:19:39.244Z,0.55
2022-11-05T14:29:57.845Z,1.17
2022-11-05T14:40:50.801Z,1.33
2022-11-05T14:51:50.580Z,1.13
2022-11-05T15:03:00.018Z,0.75
2022-11-05T15:25:21.470Z,2.25
2022-11-05T15:35:37.801Z,1.08
2022-11-05T15:46:59.954Z,0.57
2022-11-05T15:57:50.380Z,0.95
2022-11-05T16:08:34.646Z,1.67
2022-11-05T16:18:49.373Z,2.13
2022-11-05T16:29:01.542Z,3.63
2022-11-05T16:39:14.534Z,3.25
2022-11-05T16:49:21.897Z,3.53
2022-11-05T16:59:31.136Z,3.75
2022-11-05T17:09:38.794Z,5.82
2022-11-05T17:19:47.543Z,5.10
2022-11-05T17:29:54.806Z,3.85
2022-11-05T17:40:03.473Z,2.85
2022-11-05T17:50:12.811Z,2.05
2022-11-05T18:00:24.121Z,1.42
2022-11-05T18:10:31.610Z,1.30
2022-11-05T18:20:40.409Z,1.05
2022-11-05T18:30:47.430Z,1.30
2022-11-05T18:40:58.483Z,2.08
2022-11-05T18:51:11.173Z,1.30
2022-11-05T19:01:21.410Z,1.65
2022-11-05T19:11:29.705Z,0.95
2022-11-05T19:21:38.320Z,1.52
2022-11-05T19:31:45.525Z,1.23
2022-11-05T19:41:58.915Z,1.10
2022-11-05T19:52:10.068Z,1.40
2022-11-05T20:02:18.934Z,1.27
2022-11-05T20:12:26.657Z,3.63
2022-11-05T20:22:35.428Z,2.30
2022-11-05T20:32:42.466Z,3.63
2022-11-05T20:42:51.134Z,1.65
2022-11-05T20:52:58.189Z,3.90
2022-11-05T21:03:08.080Z,3.47
2022-11-05T21:13:15.046Z,2.47
2022-11-05T21:23:26.227Z,2.35
2022-11-05T21:33:35.940Z,5.78
2022-11-05T21:43:49.018Z,3.97
2022-11-05T21:54:13.319Z,4.18
2022-11-05T22:04:22.789Z,5.07
2022-11-05T22:14:30.917Z,2.85
2022-11-05T22:24:39.922Z,2.72
2022-11-05T22:34:47.391Z,2.95
2022-11-05T22:44:56.025Z,2.85
2022-11-05T22:55:05.915Z,3.17
2022-11-05T23:05:16.787Z,5.05
2022-11-05T23:15:42.676Z,2.22
2022-11-05T23:25:51.654Z,3.47
2022-11-05T23:36:18.332Z,1.00
2022-11-05T23:46:43.555Z,2.92
2022-11-05T23:56:50.702Z,4.65
